Time;durP1;ratioP1;P1;durP2;ratioP2;P2;SDS_P1;SDS_P2;PMS_P1;PMS_P2;Temp;Humidity;BMP_temperature;BMP_pressure;BME280_temperature;BME280_humidity;BME280_pressure;Samples;Min_cycle;Max_cycle;Signal;HPM_P1;HPM_P2
2023/03/27 00:00:52;;;;;;;20.05;14.13;;;359.10;1894.40;;;;;;4973528;28;20097;-72
2023/03/27 00:03:19;;;;;;;11.40;8.35;;;359.20;1868.80;;;;;;4973194;28;20110;-60
2023/03/27 00:05:45;;;;;;;9.63;6.78;;;359.30;1843.20;;;;;;4973604;28;20106;-60
2023/03/27 00:08:12;;;;;;;18.70;13.52;;;359.30;1843.20;;;;;;4973483;28;20190;-72
2023/03/27 00:10:38;;;;;;;59.60;39.35;;;359.30;1894.40;;;;;;4973553;28;20031;-60
2023/03/27 00:13:06;;;;;;;57.88;39.63;;;359.00;1971.20;;;;;;4973754;28;20108;-60
2023/03/27 00:15:35;;;;;;;43.13;29.27;;;358.80;2022.40;;;;;;4973521;28;20019;-60
2023/03/27 00:18:03;;;;;;;27.02;19.15;;;358.80;1996.80;;;;;;4973265;28;20125;-60
2023/03/27 00:20:36;;;;;;;38.95;27.08;;;358.80;1945.60;;;;;;4973455;28;20031;-61
2023/03/27 00:23:02;;;;;;;15.57;10.25;;;358.90;1996.80;;;;;;4973116;28;20081;-73
2023/03/27 00:25:29;;;;;;;33.70;24.42;;;359.00;1945.60;;;;;;4973367;28;20034;-74
2023/03/27 00:27:57;;;;;;;30.27;22.00;;;359.10;1996.80;;;;;;4973549;28;20035;-61
2023/03/27 00:30:25;;;;;;;39.75;27.10;;;359.00;1971.20;;;;;;4972823;28;20027;-60
2023/03/27 00:32:53;;;;;;;40.58;27.90;;;358.80;1996.80;;;;;;4972939;28;20042;-60
2023/03/27 00:35:19;;;;;;;41.20;27.88;;;358.90;1996.80;;;;;;4972922;28;20041;-61
2023/03/27 00:37:45;;;;;;;30.27;21.95;;;358.90;1971.20;;;;;;4972658;28;20113;-60
2023/03/27 00:40:14;;;;;;;30.85;21.17;;;359.00;1920.00;;;;;;4972909;28;20027;-61
2023/03/27 00:42:40;;;;;;;15.73;11.60;;;359.10;1945.60;;;;;;4973050;28;20023;-76
2023/03/27 00:45:13;;;;;;;14.43;9.38;;;359.20;1894.40;;;;;;4972953;28;20107;-61
2023/03/27 00:47:39;;;;;;;11.88;8.40;;;384.00;1843.20;;;;;;4973012;28;20023;-61
2023/03/27 00:50:10;;;;;;;10.85;6.88;;;384.10;1843.20;;;;;;4971991;28;20023;-61
2023/03/27 00:52:40;;;;;;;8.05;5.60;;;384.20;1792.00;;;;;;4972820;28;20038;-74
2023/03/27 00:55:13;;;;;;;17.20;10.13;;;384.40;1792.00;;;;;;4972890;28;20027;-73
2023/03/27 00:57:40;;;;;;;10.95;6.10;;;384.40;1817.60;;;;;;4972591;28;20046;-60
2023/03/27 01:00:11;;;;;;;6.57;3.53;;;384.40;1792.00;;;;;;4972852;28;20027;-60
2023/03/27 01:02:41;;;;;;;4.93;3.25;;;384.60;1792.00;;;;;;4972063;28;20031;-60
2023/03/27 01:05:09;;;;;;;9.23;6.00;;;384.60;1792.00;;;;;;4972775;28;20409;-61
2023/03/27 01:07:36;;;;;;;13.93;8.48;;;384.70;1740.80;;;;;;4971973;28;20118;-58
2023/03/27 01:10:05;;;;;;;20.33;12.10;;;384.70;1715.20;;;;;;4972746;28;20118;-59
2023/03/27 01:12:30;;;;;;;7.93;4.38;;;384.60;1766.40;;;;;;4972281;28;20027;-61
2023/03/27 01:15:02;;;;;;;7.82;4.95;;;384.60;1740.80;;;;;;4972488;28;20429;-59
2023/03/27 01:17:55;;;;;;;7.78;4.00;;;384.70;1715.20;;;;;;4972071;28;20062;-60
2023/03/27 01:20:41;;;;;;;5.57;3.95;;;384.80;1715.20;;;;;;4972038;28;20022;-62
2023/03/27 01:23:55;;;;;;;8.27;5.45;;;384.70;1689.60;;;;;;4972152;28;20046;-69
2023/03/27 01:26:39;;;;;;;6.63;4.63;;;384.80;1689.60;;;;;;4911823;29;20040;-65
2023/03/27 01:29:30;;;;;;;9.77;5.13;;;384.80;1689.60;;;;;;4912597;29;20021;-60
2023/03/27 01:32:03;;;;;;;8.77;4.88;;;384.80;1689.60;;;;;;4874763;29;20045;-74
2023/03/27 01:34:58;;;;;;;7.78;4.82;;;384.80;1715.20;;;;;;4874798;29;20041;-60
2023/03/27 01:37:36;;;;;;;8.10;4.05;;;384.80;1689.60;;;;;;4874823;29;20049;-59
2023/03/27 01:40:21;;;;;;;9.13;4.82;;;384.90;1689.60;;;;;;4874804;29;20234;-59
2023/03/27 01:43:04;;;;;;;7.95;4.03;;;384.90;1664.00;;;;;;4874478;29;20145;-60
2023/03/27 01:45:41;;;;;;;6.53;3.58;;;384.90;1689.60;;;;;;4874731;29;20393;-66
2023/03/27 01:48:39;;;;;;;7.63;4.35;;;384.90;1689.60;;;;;;4874524;29;20029;-61
2023/03/27 01:51:31;;;;;;;10.45;5.18;;;384.80;1715.20;;;;;;4863745;29;20045;-60
2023/03/27 01:54:24;;;;;;;5.63;3.55;;;384.70;1715.20;;;;;;4874451;29;20056;-60
2023/03/27 01:57:07;;;;;;;5.43;4.17;;;384.80;1689.60;;;;;;4874481;29;20037;-59
2023/03/27 01:59:38;;;;;;;7.35;3.45;;;384.80;1689.60;;;;;;4874496;29;20033;-72
2023/03/27 02:02:19;;;;;;;4.43;2.83;;;384.80;1689.60;;;;;;4881052;29;20051;-69
2023/03/27 02:04:56;;;;;;;8.15;3.72;;;384.90;1689.60;;;;;;4911821;29;20032;-60
2023/03/27 02:07:30;;;;;;;6.35;3.40;;;384.90;1689.60;;;;;;4911737;29;20024;-59
2023/03/27 02:09:57;;;;;;;;;;;384.90;1689.60;;;;;;4967521;28;20067;-59
2023/03/27 02:12:38;;;;;;;5.03;3.50;;;384.90;1689.60;;;;;;4971713;28;19913;-62
2023/03/27 02:15:06;;;;;;;5.75;4.13;;;384.90;1664.00;;;;;;4971091;28;20031;-60
2023/03/27 02:17:37;;;;;;;7.53;4.10;;;384.90;1689.60;;;;;;4971587;28;20058;-59
2023/03/27 02:20:15;;;;;;;9.05;3.78;;;384.90;1689.60;;;;;;4970969;28;20027;-59
2023/03/27 02:22:42;;;;;;;5.20;3.65;;;384.90;1689.60;;;;;;4970692;28;20069;-60
2023/03/27 02:25:38;;;;;;;7.88;3.50;;;384.90;1715.20;;;;;;4971033;28;20397;-59
2023/03/27 02:28:44;;;;;;;5.50;3.22;;;384.90;1689.60;;;;;;4919561;29;20028;-59
2023/03/27 02:31:37;;;;;;;8.45;3.42;;;384.90;1689.60;;;;;;4930207;29;20032;-60
2023/03/27 02:34:27;;;;;;;5.85;3.42;;;384.90;1689.60;;;;;;5066839;28;20369;-60
2023/03/27 02:36:53;;;;;;;8.18;3.55;;;384.90;1689.60;;;;;;5066417;28;20023;-60
2023/03/27 02:39:33;;;;;;;6.60;4.00;;;384.90;1689.60;;;;;;5065016;28;20025;-75
2023/03/27 02:42:19;;;;;;;8.07;3.83;;;384.80;1689.60;;;;;;5066065;28;20013;-71
2023/03/27 02:45:01;;;;;;;9.98;5.20;;;384.80;1715.20;;;;;;5066276;28;20036;-61
2023/03/27 02:47:27;;;;;;;9.93;5.40;;;384.60;1740.80;;;;;;5066567;28;20078;-61
2023/03/27 02:50:12;;;;;;;11.15;5.68;;;384.40;1766.40;;;;;;5065773;28;20017;-60
2023/03/27 02:52:50;;;;;;;6.85;4.55;;;384.30;1792.00;;;;;;5066192;28;20047;-60
2023/03/27 02:55:33;;;;;;;8.40;4.53;;;384.20;1792.00;;;;;;5066176;28;20017;-60
2023/03/27 02:58:13;;;;;;;9.05;5.63;;;384.10;1817.60;;;;;;5065912;28;20025;-60
2023/03/27 03:00:46;;;;;;;9.30;5.22;;;384.10;1817.60;;;;;;5066323;28;20159;-74
2023/03/27 03:03:40;;;;;;;8.15;4.05;;;384.20;1792.00;;;;;;5066243;28;20117;-59
2023/03/27 03:06:06;;;;;;;;;;;384.30;1792.00;;;;;;5065991;28;20529;-63
2023/03/27 03:08:37;;;;;;;7.13;5.00;;;384.30;1766.40;;;;;;5065732;28;19908;-64
2023/03/27 03:11:04;;;;;;;8.80;6.00;;;384.10;1817.60;;;;;;5066059;28;20119;-62
2023/03/27 03:13:30;;;;;;;8.73;5.70;;;359.30;1843.20;;;;;;5065607;28;20541;-61
2023/03/27 03:15:57;;;;;;;16.48;6.43;;;359.20;1843.20;;;;;;5065218;28;20021;-60
2023/03/27 03:18:23;;;;;;;10.55;6.00;;;359.20;1843.20;;;;;;5066136;28;20029;-60
2023/03/27 03:20:53;;;;;;;8.38;6.22;;;359.10;1843.20;;;;;;5065200;28;20467;-66
2023/03/27 03:23:21;;;;;;;7.13;5.15;;;359.10;1843.20;;;;;;5065704;28;20035;-64
2023/03/27 03:25:51;;;;;;;7.43;5.22;;;359.10;1843.20;;;;;;5065510;28;20031;-59
2023/03/27 03:28:17;;;;;;;8.10;5.10;;;359.00;1868.80;;;;;;5065766;28;20017;-59
2023/03/27 03:30:46;;;;;;;8.73;5.18;;;358.90;1843.20;;;;;;5065348;28;20479;-60
2023/03/27 03:33:13;;;;;;;7.18;4.22;;;358.90;1868.80;;;;;;5065159;28;20402;-61
2023/03/27 03:35:39;;;;;;;6.22;3.78;;;358.80;1868.80;;;;;;5064678;28;20012;-61
2023/03/27 03:38:05;;;;;;;7.30;4.70;;;358.70;1971.20;;;;;;5065249;28;20044;-60
2023/03/27 03:40:31;;;;;;;6.75;4.40;;;358.50;1945.60;;;;;;5064854;28;20021;-61
2023/03/27 03:42:57;;;;;;;11.65;6.40;;;358.50;1920.00;;;;;;5065062;28;20021;-60
2023/03/27 03:45:23;;;;;;;8.63;6.15;;;358.40;1945.60;;;;;;5052107;28;20032;-61
2023/03/27 03:47:49;;;;;;;5.28;3.78;;;358.50;1920.00;;;;;;5051787;28;20130;-61
2023/03/27 03:50:15;;;;;;;5.40;3.25;;;358.70;1894.40;;;;;;5051597;28;20025;-60
2023/03/27 03:52:41;;;;;;;8.02;4.78;;;358.90;1894.40;;;;;;5051510;28;20037;-60
2023/03/27 03:55:10;;;;;;;7.43;4.95;;;359.00;1868.80;;;;;;5051383;28;20405;-60
2023/03/27 03:57:36;;;;;;;6.25;4.00;;;359.20;1843.20;;;;;;5051972;28;20120;-69
2023/03/27 04:00:11;;;;;;;7.28;4.38;;;359.20;1868.80;;;;;;5051709;28;20066;-60
2023/03/27 04:02:37;;;;;;;5.63;4.05;;;359.30;1843.20;;;;;;5051448;28;20029;-60
2023/03/27 04:05:03;;;;;;;6.38;3.95;;;384.00;1843.20;;;;;;5051456;28;20033;-60
2023/03/27 04:07:34;;;;;;;6.35;3.55;;;384.10;1817.60;;;;;;5050997;28;20066;-61
2023/03/27 04:10:01;;;;;;;10.82;5.07;;;384.20;1817.60;;;;;;5051674;28;20031;-61
2023/03/27 04:12:27;;;;;;;4.68;3.47;;;384.30;1817.60;;;;;;5038110;28;20025;-63
2023/03/27 04:14:53;;;;;;;4.78;2.88;;;384.40;1843.20;;;;;;5051769;28;20394;-60
2023/03/27 04:17:19;;;;;;;5.50;3.28;;;384.70;1843.20;;;;;;5050840;28;20021;-75
2023/03/27 04:19:45;;;;;;;6.28;4.28;;;384.70;1843.20;;;;;;5051274;28;20044;-60
2023/03/27 04:22:17;;;;;;;6.80;4.32;;;384.70;1868.80;;;;;;5050471;28;20036;-60
2023/03/27 04:24:43;;;;;;;6.57;3.50;;;384.30;1894.40;;;;;;5051699;28;20025;-75
2023/03/27 04:27:10;;;;;;;5.72;2.90;;;358.90;2124.80;;;;;;5051013;28;20032;-59
2023/03/27 04:29:36;;;;;;;5.22;2.00;;;358.40;2304.00;;;;;;5051264;28;20036;-58
2023/03/27 04:32:02;;;;;;;5.07;2.45;;;333.00;2329.60;;;;;;5050695;28;20041;-58
2023/03/27 04:34:29;;;;;;;4.68;2.20;;;307.90;2304.00;;;;;;5050771;28;20025;-58
2023/03/27 04:36:54;;;;;;;5.78;2.67;;;307.80;2304.00;;;;;;5050402;28;20083;-58
2023/03/27 04:39:21;;;;;;;3.95;1.88;;;307.70;2304.00;;;;;;5050923;28;20029;-58
2023/03/27 04:41:49;;;;;;;6.10;2.78;;;307.60;2304.00;;;;;;5044234;28;20067;-60
2023/03/27 04:44:19;;;;;;;4.50;2.45;;;307.60;2304.00;;;;;;5044405;28;20053;-74
2023/03/27 04:46:49;;;;;;;3.45;2.10;;;307.40;2304.00;;;;;;5050883;28;20371;-66
2023/03/27 04:49:19;;;;;;;5.45;2.30;;;307.50;2304.00;;;;;;5041425;28;20087;-59
2023/03/27 04:51:47;;;;;;;2.55;1.55;;;307.40;2304.00;;;;;;5030971;28;20425;-65
2023/03/27 04:54:13;;;;;;;4.00;2.15;;;307.20;2304.00;;;;;;5030471;28;20045;-59
2023/03/27 04:56:40;;;;;;;5.25;2.22;;;282.40;2278.40;;;;;;5029412;28;20014;-60
2023/03/27 04:59:06;;;;;;;5.75;3.20;;;282.40;2278.40;;;;;;5029978;28;20148;-58
2023/03/27 05:01:32;;;;;;;5.20;2.50;;;282.50;2278.40;;;;;;5030777;28;20164;-59
2023/03/27 05:04:01;;;;;;;5.45;2.35;;;282.50;2278.40;;;;;;5029967;28;20022;-60
2023/03/27 05:06:27;;;;;;;4.20;2.08;;;282.50;2278.40;;;;;;5031803;28;20021;-60
2023/03/27 05:08:53;;;;;;;6.05;4.25;;;282.50;2278.40;;;;;;5042850;28;20112;-58
2023/03/27 05:11:19;;;;;;;4.35;2.30;;;307.20;2304.00;;;;;;5050495;28;20065;-56
2023/03/27 05:13:45;;;;;;;6.22;4.45;;;307.30;2304.00;;;;;;5050399;28;20082;-70
2023/03/27 05:16:10;;;;;;;4.10;2.95;;;307.30;2304.00;;;;;;5050135;28;20096;-59
2023/03/27 05:18:37;;;;;;;6.05;2.60;;;307.30;2304.00;;;;;;5050684;28;20075;-58
2023/03/27 05:21:03;;;;;;;2.60;1.52;;;307.40;2304.00;;;;;;5049786;28;20031;-59
2023/03/27 05:23:29;;;;;;;2.47;1.23;;;307.40;2304.00;;;;;;5050106;28;20032;-60
2023/03/27 05:25:55;;;;;;;2.38;1.55;;;307.50;2304.00;;;;;;5049822;28;20021;-74
2023/03/27 05:28:22;;;;;;;13.88;8.23;;;307.60;2304.00;;;;;;5049907;28;20104;-70
2023/03/27 05:30:48;;;;;;;43.13;27.70;;;307.60;2304.00;;;;;;5049305;28;20017;-60
2023/03/27 05:33:16;;;;;;;26.33;20.80;;;307.60;2304.00;;;;;;5049323;28;20044;-62
2023/03/27 05:35:45;;;;;;;9.23;8.20;;;307.60;2304.00;;;;;;5049576;28;20025;-73
2023/03/27 05:38:11;;;;;;;9.02;8.13;;;307.60;2304.00;;;;;;5049304;28;20124;-60
2023/03/27 05:40:38;;;;;;;6.13;4.25;;;307.60;2304.00;;;;;;5023426;28;20472;-62
2023/03/27 05:43:04;;;;;;;5.13;4.10;;;307.60;2304.00;;;;;;5048645;28;20033;-71
2023/03/27 05:45:31;;;;;;;17.77;9.07;;;307.50;2304.00;;;;;;5049730;28;20110;-59
2023/03/27 05:47:58;;;;;;;4.47;2.88;;;307.50;2304.00;;;;;;5049630;28;20027;-59
2023/03/27 05:50:27;;;;;;;3.90;2.72;;;307.40;2304.00;;;;;;5049550;28;20032;-65
2023/03/27 05:53:03;;;;;;;4.85;2.83;;;307.40;2304.00;;;;;;5049426;28;20037;-69
2023/03/27 05:55:30;;;;;;;25.52;23.00;;;307.50;2304.00;;;;;;5049336;28;20087;-72
2023/03/27 05:57:56;;;;;;;5.60;4.55;;;307.50;2304.00;;;;;;5049196;28;20033;-72
2023/03/27 06:00:25;;;;;;;6.60;4.25;;;307.60;2304.00;;;;;;5049670;28;20534;-72
2023/03/27 06:02:55;;;;;;;7.45;6.68;;;307.60;2304.00;;;;;;5049015;28;20392;-70
2023/03/27 06:05:22;;;;;;;6.65;4.90;;;307.60;2304.00;;;;;;5049290;28;20044;-60
2023/03/27 06:07:47;;;;;;;5.35;3.63;;;307.70;2304.00;;;;;;5048316;28;20058;-70
2023/03/27 06:10:19;;;;;;;9.25;4.65;;;307.70;2304.00;;;;;;5049626;28;20049;-65
2023/03/27 06:12:46;;;;;;;16.73;9.40;;;307.70;2304.00;;;;;;5048607;28;20029;-65
2023/03/27 06:15:14;;;;;;;22.42;12.75;;;307.70;2304.00;;;;;;5037594;28;20060;-65
2023/03/27 06:17:41;;;;;;;12.48;6.78;;;307.70;2304.00;;;;;;5039132;28;20474;-60
2023/03/27 06:20:13;;;;;;;6.57;3.53;;;307.70;2304.00;;;;;;5041172;28;20469;-60
2023/03/27 06:22:51;;;;;;;9.30;4.47;;;307.80;2304.00;;;;;;5043663;28;20024;-60
2023/03/27 06:25:21;;;;;;;30.27;17.00;;;308.00;2304.00;;;;;;5049016;28;20075;-60
2023/03/27 06:27:49;;;;;;;10.93;7.82;;;308.10;2304.00;;;;;;5035453;28;20047;-70
2023/03/27 06:30:17;;;;;;;18.23;12.18;;;308.00;2304.00;;;;;;5049432;28;20471;-64
2023/03/27 06:32:45;;;;;;;23.98;16.05;;;308.10;2304.00;;;;;;5033812;28;20037;-62
2023/03/27 06:35:13;;;;;;;18.90;13.27;;;308.10;2304.00;;;;;;5037324;28;20076;-61
2023/03/27 06:37:40;;;;;;;13.05;9.20;;;332.90;2329.60;;;;;;5048787;28;20032;-65
2023/03/27 06:40:09;;;;;;;15.65;9.57;;;332.80;2329.60;;;;;;5048890;28;20120;-65
2023/03/27 06:42:35;;;;;;;10.30;7.05;;;332.90;2329.60;;;;;;5039223;28;20523;-65
2023/03/27 06:45:03;;;;;;;17.55;10.70;;;332.90;2329.60;;;;;;5028293;28;20068;-64
2023/03/27 06:47:29;;;;;;;14.60;9.38;;;332.90;2329.60;;;;;;5033031;28;20025;-62
2023/03/27 06:49:55;;;;;;;14.52;8.95;;;332.90;2329.60;;;;;;5049194;28;20142;-62
2023/03/27 06:52:21;;;;;;;9.13;7.13;;;333.10;2329.60;;;;;;5048180;28;20107;-63
2023/03/27 06:54:47;;;;;;;11.82;9.38;;;333.20;2329.60;;;;;;5031275;28;20068;-62
2023/03/27 06:57:14;;;;;;;12.45;9.98;;;333.00;2329.60;;;;;;5028747;28;20550;-64
2023/03/27 06:59:40;;;;;;;12.65;8.40;;;333.20;2329.60;;;;;;5048597;28;20021;-63
2023/03/27 07:02:06;;;;;;;17.38;12.82;;;333.30;2329.60;;;;;;5035001;28;20505;-65
2023/03/27 07:04:32;;;;;;;23.70;16.95;;;358.50;2329.60;;;;;;5033582;28;20028;-61
2023/03/27 07:06:58;;;;;;;19.33;12.27;;;358.70;2329.60;;;;;;5032992;28;20471;-61
2023/03/27 07:09:25;;;;;;;5.65;3.58;;;359.10;2329.60;;;;;;5048848;28;20021;-63
2023/03/27 07:11:50;;;;;;;13.80;10.75;;;359.20;2329.60;;;;;;5048481;28;20031;-65
2023/03/27 07:14:16;;;;;;;17.88;10.65;;;359.30;2329.60;;;;;;5048623;28;20029;-62
2023/03/27 07:16:42;;;;;;;12.68;5.03;;;384.00;2329.60;;;;;;5048833;28;20463;-61
2023/03/27 07:19:07;;;;;;;8.00;5.32;;;359.30;2329.60;;;;;;5035718;28;20037;-62
2023/03/27 07:21:33;;;;;;;26.40;15.05;;;359.30;2329.60;;;;;;5042412;28;20040;-61
2023/03/27 07:23:59;;;;;;;17.92;9.55;;;384.00;2329.60;;;;;;5048446;28;20029;-63
2023/03/27 07:26:25;;;;;;;5.78;3.08;;;384.10;2329.60;;;;;;5052510;28;20027;-61
2023/03/27 07:28:51;;;;;;;7.93;4.45;;;384.10;2329.60;;;;;;5051588;28;20051;-63
2023/03/27 07:31:17;;;;;;;18.30;12.20;;;384.40;2329.60;;;;;;5052284;28;20025;-62
2023/03/27 07:33:43;;;;;;;7.13;4.70;;;384.50;2329.60;;;;;;5038205;28;20049;-62
2023/03/27 07:36:09;;;;;;;5.95;4.38;;;384.80;2329.60;;;;;;5051601;28;20471;-62
2023/03/27 07:38:35;;;;;;;6.20;5.60;;;409.60;2355.20;;;;;;5051880;28;20029;-65
2023/03/27 07:41:05;;;;;;;5.78;4.07;;;409.70;2355.20;;;;;;5052067;28;20022;-62
2023/03/27 07:43:34;;;;;;;6.68;5.05;;;409.80;2329.60;;;;;;5040271;28;20045;-64
2023/03/27 07:46:01;;;;;;;6.50;4.05;;;;;;;;;;5037498;28;20044;-61
2023/03/27 07:48:28;;;;;;;5.50;3.88;;;;;;;;;;5033816;28;20028;-65
2023/03/27 07:51:01;;;;;;;33.38;22.42;;;410.00;2329.60;;;;;;5031638;28;20403;-64
2023/03/27 07:53:28;;;;;;;30.63;17.10;;;410.20;2355.20;;;;;;5031751;28;20074;-62
2023/03/27 07:55:57;;;;;;;14.35;11.95;;;435.20;2278.40;;;;;;5032414;28;20140;-62
2023/03/27 07:58:23;;;;;;;21.63;17.05;;;435.60;2252.80;;;;;;5032171;28;20043;-63
2023/03/27 08:00:52;;;;;;;10.23;8.07;;;435.90;2201.60;;;;;;5031971;28;20380;-65
2023/03/27 08:03:19;;;;;;;22.70;14.88;;;435.60;2176.00;;;;;;5046527;28;20045;-64
2023/03/27 08:05:52;;;;;;;6.90;4.68;;;436.00;2176.00;;;;;;5039811;28;20021;-65
2023/03/27 08:08:18;;;;;;;;;;;435.30;2176.00;;;;;;5036819;28;20029;-63
2023/03/27 08:10:44;;;;;;;10.13;6.47;;;435.60;2176.00;;;;;;5031823;28;19909;-62
2023/03/27 08:13:11;;;;;;;5.82;3.80;;;435.90;2124.80;;;;;;5032207;28;20071;-62
2023/03/27 08:15:37;;;;;;;7.25;4.25;;;436.10;2073.60;;;;;;5051298;28;20025;-63
2023/03/27 08:18:03;;;;;;;14.50;9.52;;;436.00;2073.60;;;;;;5039485;28;20040;-63
2023/03/27 08:20:29;;;;;;;8.40;5.80;;;435.90;2124.80;;;;;;5050018;28;20025;-64
2023/03/27 08:22:55;;;;;;;7.97;6.03;;;435.80;2150.40;;;;;;5051022;28;20075;-64
2023/03/27 08:25:21;;;;;;;8.95;5.32;;;436.10;2124.80;;;;;;5036758;28;20033;-65
2023/03/27 08:27:47;;;;;;;18.23;10.52;;;461.20;2124.80;;;;;;5051120;28;20028;-62
2023/03/27 08:30:13;;;;;;;8.07;5.43;;;461.00;2073.60;;;;;;5050957;28;20025;-62
2023/03/27 08:32:40;;;;;;;12.10;8.50;;;436.10;2073.60;;;;;;5039620;28;20466;-64
2023/03/27 08:35:07;;;;;;;13.43;9.07;;;461.20;2073.60;;;;;;5047119;28;20546;-63
2023/03/27 08:37:33;;;;;;;19.15;14.15;;;461.40;2048.00;;;;;;5051077;28;20029;-63
2023/03/27 08:40:00;;;;;;;247.98;203.32;;;461.40;2022.40;;;;;;5050589;28;20039;-64
2023/03/27 08:42:43;;;;;;;76.65;61.50;;;461.40;2022.40;;;;;;5051073;28;20082;-63
2023/03/27 08:45:23;;;;;;;14.23;10.02;;;461.50;2022.40;;;;;;5050295;28;20379;-63
2023/03/27 08:48:06;;;;;;;9.57;6.65;;;461.20;2022.40;;;;;;5050639;28;20021;-65
2023/03/27 08:50:42;;;;;;;13.85;11.60;;;460.80;2073.60;;;;;;5050733;28;20031;-63
2023/03/27 08:53:40;;;;;;;25.30;16.00;;;461.10;2073.60;;;;;;5045395;28;20088;-66
2023/03/27 08:56:13;;;;;;;22.13;14.70;;;460.90;2022.40;;;;;;5044199;28;20643;-63
2023/03/27 08:58:40;;;;;;;6.05;3.92;;;461.10;2099.20;;;;;;5031782;28;20030;-65
2023/03/27 09:01:20;;;;;;;16.05;11.18;;;461.30;1971.20;;;;;;5040563;28;20037;-62
2023/03/27 09:04:03;;;;;;;10.25;7.53;;;461.20;2073.60;;;;;;5034908;28;20078;-62
2023/03/27 09:06:38;;;;;;;;;;;461.10;2099.20;;;;;;5047775;28;20029;-65
2023/03/27 09:09:25;;;;;;;13.65;11.65;;;461.20;2124.80;;;;;;5046838;28;19947;-62
2023/03/27 09:11:57;;;;;;;9.30;7.53;;;461.50;2073.60;;;;;;5047215;28;20052;-63
2023/03/27 09:14:30;;;;;;;9.85;8.15;;;461.70;2022.40;;;;;;5047632;28;20041;-64
2023/03/27 09:17:02;;;;;;;5.47;4.20;;;486.50;1996.80;;;;;;5048118;28;20025;-65
2023/03/27 09:19:47;;;;;;;7.53;4.90;;;486.50;1945.60;;;;;;5048042;28;20037;-63
2023/03/27 09:22:42;;;;;;;4.40;3.03;;;486.90;1945.60;;;;;;5047444;28;20047;-63
2023/03/27 09:25:28;;;;;;;10.73;5.68;;;486.80;1945.60;;;;;;5047676;28;20021;-65
2023/03/27 09:27:54;;;;;;;13.25;8.05;;;487.10;1945.60;;;;;;5031228;28;20033;-65
2023/03/27 09:30:28;;;;;;;4.05;2.78;;;487.30;1920.00;;;;;;5042227;28;20461;-62
2023/03/27 09:33:04;;;;;;;12.40;9.07;;;512.10;1996.80;;;;;;5047208;28;20494;-62
2023/03/27 09:35:31;;;;;;;13.00;8.55;;;512.10;1843.20;;;;;;5049139;28;20037;-64
2023/03/27 09:38:02;;;;;;;4.72;3.33;;;512.90;1843.20;;;;;;5048718;28;20489;-63
2023/03/27 09:40:55;;;;;;;3.08;1.60;;;512.90;1792.00;;;;;;5048981;28;20035;-63
2023/03/27 09:43:28;;;;;;;2.72;1.90;;;512.90;1715.20;;;;;;5047911;28;20112;-63
2023/03/27 09:45:56;;;;;;;6.65;3.58;;;512.60;1689.60;;;;;;5049573;28;20021;-64
2023/03/27 09:48:25;;;;;;;2.70;1.20;;;512.40;1664.00;;;;;;5049538;28;20100;-65
2023/03/27 09:50:50;;;;;;;3.15;2.22;;;487.30;1664.00;;;;;;5049092;28;20526;-64
2023/03/27 09:53:19;;;;;;;2.10;1.30;;;486.80;1715.20;;;;;;5049455;28;20116;-63
2023/03/27 09:55:49;;;;;;;10.45;5.28;;;461.70;1740.80;;;;;;5049775;28;20071;-63
2023/03/27 09:58:23;;;;;;;7.78;2.78;;;460.90;1817.60;;;;;;5049681;28;20029;-64
2023/03/27 10:01:09;;;;;;;3.75;2.25;;;410.30;2022.40;;;;;;5049152;28;20041;-64
2023/03/27 10:03:44;;;;;;;3.13;1.92;;;384.50;2099.20;;;;;;5049503;28;20028;-63
2023/03/27 10:06:13;;;;;;;4.90;1.80;;;384.10;2201.60;;;;;;5049356;28;20028;-63
2023/03/27 10:08:44;;;;;;;5.70;3.08;;;359.10;2227.20;;;;;;5048996;28;20028;-63
2023/03/27 10:11:16;;;;;;;4.20;1.65;;;358.90;2329.60;;;;;;5049577;28;20056;-63
2023/03/27 10:13:47;;;;;;;2.00;1.45;;;358.80;2329.60;;;;;;5049008;28;20125;-62
2023/03/27 10:16:16;;;;;;;3.97;2.33;;;359.00;2329.60;;;;;;5049312;28;20108;-62
2023/03/27 10:18:45;;;;;;;6.25;3.97;;;384.00;2329.60;;;;;;5035622;28;20021;-64
2023/03/27 10:21:18;;;;;;;4.43;2.45;;;384.40;2329.60;;;;;;5041764;28;20467;-65
2023/03/27 10:23:48;;;;;;;12.43;11.18;;;384.40;2329.60;;;;;;5042529;28;20029;-63
2023/03/27 10:26:19;;;;;;;9.25;8.38;;;384.30;2329.60;;;;;;5038332;28;20107;-63
2023/03/27 10:28:51;;;;;;;4.32;2.58;;;359.00;2329.60;;;;;;5049406;28;20021;-63
2023/03/27 10:31:31;;;;;;;8.40;6.93;;;358.70;2329.60;;;;;;5049292;28;20017;-62
2023/03/27 10:34:00;;;;;;;34.33;27.90;;;358.40;2329.60;;;;;;5048207;28;20084;-63
2023/03/27 10:36:30;;;;;;;42.13;34.63;;;333.70;2329.60;;;;;;5049099;28;20017;-63
2023/03/27 10:39:01;;;;;;;15.90;10.80;;;333.60;2329.60;;;;;;5049387;28;20029;-64
2023/03/27 10:41:27;;;;;;;104.15;65.38;;;358.40;2329.60;;;;;;5049081;28;20022;-63
2023/03/27 10:43:55;;;;;;;8.88;6.07;;;333.70;2329.60;;;;;;5049006;28;20484;-63
2023/03/27 10:46:27;;;;;;;12.15;7.32;;;358.50;2329.60;;;;;;5048740;28;20515;-63
2023/03/27 10:49:02;;;;;;;22.45;15.50;;;358.60;2329.60;;;;;;5049260;28;20032;-62
2023/03/27 10:52:07;;;;;;;7.10;4.97;;;358.70;2329.60;;;;;;5048257;28;20025;-63
2023/03/27 10:54:52;;;;;;;15.57;14.07;;;359.00;2329.60;;;;;;5050234;28;20029;-63
2023/03/27 10:57:23;;;;;;;9.48;7.55;;;358.70;2329.60;;;;;;5052514;28;20029;-62
2023/03/27 11:00:18;;;;;;;10.57;8.65;;;358.60;2329.60;;;;;;5052752;28;20029;-63
2023/03/27 11:02:49;;;;;;;9.10;7.00;;;333.40;2329.60;;;;;;5052840;28;20021;-62
2023/03/27 11:05:30;;;;;;;9.02;8.10;;;308.10;2304.00;;;;;;5052578;28;20025;-63
2023/03/27 11:08:08;;;;;;;7.15;5.63;;;307.80;2304.00;;;;;;5052657;28;20028;-63
2023/03/27 11:10:45;;;;;;;13.93;9.45;;;307.60;2304.00;;;;;;5052693;28;20029;-65
2023/03/27 11:13:26;;;;;;;6.40;4.80;;;307.60;2304.00;;;;;;5052370;28;20090;-65
2023/03/27 11:16:15;;;;;;;11.23;6.82;;;307.30;2304.00;;;;;;5052544;28;20055;-61
2023/03/27 11:18:50;;;;;;;9.27;5.20;;;307.30;2304.00;;;;;;5051509;28;20022;-64
2023/03/27 11:21:39;;;;;;;14.13;9.15;;;307.20;2304.00;;;;;;5052661;28;20032;-64
2023/03/27 11:24:16;;;;;;;4.25;3.13;;;307.30;2304.00;;;;;;5042269;28;20081;-62
2023/03/27 11:27:12;;;;;;;5.10;3.75;;;307.30;2304.00;;;;;;5032399;28;20048;-62
2023/03/27 11:30:13;;;;;;;19.25;13.73;;;282.50;2278.40;;;;;;5034421;28;20423;-61
2023/03/27 11:33:28;;;;;;;3.88;2.25;;;282.50;2278.40;;;;;;5051636;28;20041;-62
2023/03/27 11:36:26;;;;;;;3.60;2.50;;;307.30;2304.00;;;;;;5049469;28;20052;-62
2023/03/27 11:39:21;;;;;;;2.90;2.05;;;307.40;2304.00;;;;;;5008961;28;20034;-63
2023/03/27 11:41:55;;;;;;;6.35;5.25;;;307.70;2304.00;;;;;;4990445;28;20062;-62
2023/03/27 11:44:22;;;;;;;5.05;3.55;;;308.10;2304.00;;;;;;4990375;28;20034;-61
2023/03/27 11:47:09;;;;;;;4.82;3.42;;;333.60;2329.60;;;;;;4990405;28;20485;-62
2023/03/27 11:50:03;;;;;;;3.58;2.45;;;358.60;2329.60;;;;;;4990463;28;20034;-61
2023/03/27 11:52:47;;;;;;;;;;;359.10;2329.60;;;;;;4990554;28;20395;-65
2023/03/27 11:55:18;;;;;;;5.10;2.80;;;359.10;2329.60;;;;;;5006568;28;19941;-62
2023/03/27 11:58:25;;;;;;;3.78;2.83;;;358.90;2329.60;;;;;;5010127;28;20112;-64
2023/03/27 12:01:14;;;;;;;4.70;3.10;;;359.30;2329.60;;;;;;5001512;28;20019;-63
2023/03/27 12:03:40;;;;;;;4.93;3.83;;;359.00;2329.60;;;;;;5008414;28;20074;-60
2023/03/27 12:06:35;;;;;;;3.50;2.58;;;358.60;2329.60;;;;;;5008244;28;20496;-62
2023/03/27 12:09:35;;;;;;;6.45;3.58;;;358.40;2329.60;;;;;;5007884;28;20041;-62
2023/03/27 12:12:48;;;;;;;5.82;4.05;;;358.50;2329.60;;;;;;5008697;28;20727;-62
2023/03/27 12:15:55;;;;;;;7.60;4.38;;;333.40;2329.60;;;;;;4957649;28;20570;-61
2023/03/27 12:18:27;;;;;;;4.85;2.88;;;333.50;2329.60;;;;;;4930943;29;20031;-64
2023/03/27 12:21:05;;;;;;;4.15;2.67;;;333.70;2329.60;;;;;;4930643;29;20051;-62
2023/03/27 12:23:31;;;;;;;4.25;3.17;;;333.40;2329.60;;;;;;4930847;29;20071;-63
2023/03/27 12:26:33;;;;;;;6.65;3.83;;;333.20;2329.60;;;;;;4930666;29;20036;-65
2023/03/27 12:29:22;;;;;;;7.80;3.95;;;332.90;2329.60;;;;;;4930731;29;20031;-62
2023/03/27 12:32:25;;;;;;;6.97;4.63;;;308.00;2304.00;;;;;;4931410;29;20020;-64
2023/03/27 12:34:58;;;;;;;7.95;6.72;;;308.10;2304.00;;;;;;4893137;29;20384;-62
2023/03/27 12:37:28;;;;;;;;;;;332.90;2329.60;;;;;;4893188;29;20440;-61
2023/03/27 12:39:57;;;;;;;6.35;4.32;;;333.20;2329.60;;;;;;4893833;29;20481;-62
2023/03/27 12:42:49;;;;;;;4.88;3.75;;;333.20;2329.60;;;;;;4893910;29;20047;-62
2023/03/27 12:45:22;;;;;;;5.88;5.22;;;333.10;2329.60;;;;;;4893920;29;20071;-62